createdAt,value
2023-05-19T00:00:37.147Z,10.60
2023-05-19T00:03:05.104Z,9.40
2023-05-19T00:05:33.488Z,9.13
2023-05-19T00:08:02.460Z,8.57
2023-05-19T00:10:31.747Z,9.98
2023-05-19T00:12:59.786Z,12.73
2023-05-19T00:15:27.562Z,10.48
2023-05-19T00:17:55.534Z,11.60
2023-05-19T00:20:23.282Z,11.70
2023-05-19T00:22:51.423Z,13.15
2023-05-19T00:25:19.039Z,8.75
2023-05-19T00:27:46.649Z,12.88
2023-05-19T00:30:14.471Z,11.25
2023-05-19T00:32:42.126Z,11.65
2023-05-19T00:35:09.971Z,14.13
2023-05-19T00:37:38.134Z,11.93
2023-05-19T00:40:07.087Z,10.95
2023-05-19T00:42:34.897Z,8.68
2023-05-19T00:45:02.531Z,18.45
2023-05-19T00:47:30.229Z,14.68
2023-05-19T00:49:57.866Z,7.32
2023-05-19T00:52:26.038Z,11.75
2023-05-19T00:54:55.775Z,10.75
2023-05-19T00:57:23.501Z,11.35
2023-05-19T00:59:51.131Z,15.13
2023-05-19T01:02:18.736Z,11.00
2023-05-19T01:04:46.992Z,13.18
2023-05-19T01:07:16.372Z,12.00
2023-05-19T01:09:44.327Z,9.20
2023-05-19T01:12:12.365Z,14.63
2023-05-19T01:14:40.754Z,10.23
2023-05-19T01:17:23.092Z,13.32
2023-05-19T01:20:02.012Z,12.95
2023-05-19T01:22:58.992Z,7.65
2023-05-19T01:25:45.590Z,9.82
2023-05-19T01:28:23.335Z,12.50
2023-05-19T01:30:55.204Z,10.38
2023-05-19T01:33:23.978Z,8.52
2023-05-19T01:35:52.136Z,9.70
2023-05-19T01:38:21.058Z,11.65
2023-05-19T01:40:50.298Z,11.32
2023-05-19T01:43:21.176Z,7.50
2023-05-19T01:45:49.476Z,13.43
2023-05-19T01:48:18.133Z,8.23
2023-05-19T01:50:46.523Z,12.38
2023-05-19T01:53:14.184Z,11.43
2023-05-19T01:55:49.478Z,10.23
2023-05-19T01:58:19.933Z,8.32
2023-05-19T02:00:50.829Z,7.75
2023-05-19T02:03:33.608Z,13.03
2023-05-19T02:06:14.474Z,12.32
2023-05-19T02:08:51.322Z,8.25
2023-05-19T02:11:26.156Z,9.45
2023-05-19T02:13:56.803Z,12.52
2023-05-19T02:16:28.985Z,13.73
2023-05-19T02:18:57.298Z,13.30
2023-05-19T02:21:24.987Z,11.55
2023-05-19T02:23:52.696Z,12.13
2023-05-19T02:26:21.607Z,10.18
2023-05-19T02:28:50.214Z,8.80
2023-05-19T02:31:18.813Z,10.65
2023-05-19T02:33:46.432Z,11.77
2023-05-19T02:36:14.756Z,12.32
2023-05-19T02:38:42.304Z,12.10
2023-05-19T02:41:09.946Z,7.47
2023-05-19T02:43:37.658Z,11.80
2023-05-19T02:46:05.372Z,11.23
2023-05-19T02:48:32.970Z,8.52
2023-05-19T02:51:00.540Z,11.27
2023-05-19T02:53:28.126Z,12.57
2023-05-19T02:55:55.817Z,9.25
2023-05-19T02:58:23.408Z,9.73
2023-05-19T03:00:51.406Z,9.82
2023-05-19T03:03:19.755Z,9.48
2023-05-19T03:05:48.145Z,12.90
2023-05-19T03:08:15.765Z,10.88
2023-05-19T03:10:43.382Z,8.90
2023-05-19T03:13:11.216Z,10.77
2023-05-19T03:15:39.112Z,11.80
2023-05-19T03:18:06.784Z,11.18
2023-05-19T03:20:34.581Z,15.55
2023-05-19T03:23:02.329Z,13.88
2023-05-19T03:25:30.059Z,10.75
2023-05-19T03:27:57.729Z,11.52
2023-05-19T03:30:25.573Z,9.23
2023-05-19T03:33:09.929Z,9.32
2023-05-19T03:35:37.770Z,9.63
2023-05-19T03:38:05.942Z,11.38
2023-05-19T03:40:33.810Z,12.57
2023-05-19T03:43:06.165Z,10.85
2023-05-19T03:45:38.308Z,12.57
2023-05-19T03:48:22.508Z,10.68
2023-05-19T03:51:08.974Z,9.63
2023-05-19T03:53:36.646Z,11.45
2023-05-19T03:56:04.608Z,9.90
2023-05-19T03:58:33.340Z,9.85
2023-05-19T04:01:01.056Z,10.85
2023-05-19T04:03:28.737Z,9.70
2023-05-19T04:05:56.441Z,15.35
2023-05-19T04:08:24.045Z,9.15
2023-05-19T04:10:51.646Z,9.23
2023-05-19T04:13:19.322Z,9.00
2023-05-19T04:15:47.051Z,11.80
2023-05-19T04:18:14.707Z,16.35
2023-05-19T04:20:42.360Z,11.43
2023-05-19T04:23:10.459Z,14.48
2023-05-19T04:25:40.729Z,16.27
2023-05-19T04:28:08.417Z,12.82
2023-05-19T04:30:36.955Z,15.32
2023-05-19T04:33:05.278Z,14.82
2023-05-19T04:35:33.014Z,8.95
2023-05-19T04:38:02.773Z,9.55
2023-05-19T04:40:33.160Z,10.93
2023-05-19T04:43:02.271Z,8.77
2023-05-19T04:45:32.962Z,9.95
2023-05-19T04:48:02.495Z,11.63
2023-05-19T04:50:32.325Z,11.27
2023-05-19T04:53:00.980Z,8.13
2023-05-19T04:55:28.717Z,7.70
2023-05-19T04:57:56.341Z,9.98
2023-05-19T05:00:25.310Z,7.72
2023-05-19T05:02:58.355Z,9.80
2023-05-19T05:05:28.565Z,12.10
2023-05-19T05:07:57.362Z,10.35
2023-05-19T05:10:27.600Z,8.45
2023-05-19T05:12:55.398Z,12.63
2023-05-19T05:15:24.296Z,12.18
2023-05-19T05:17:52.450Z,17.23
2023-05-19T05:20:21.194Z,10.80
2023-05-19T05:22:48.914Z,12.40
2023-05-19T05:25:17.316Z,9.60
2023-05-19T05:27:45.690Z,10.73
2023-05-19T05:30:14.522Z,12.48
2023-05-19T05:32:42.870Z,10.65
2023-05-19T05:35:22.153Z,11.52
2023-05-19T05:37:50.236Z,8.93
2023-05-19T05:40:18.305Z,10.70
2023-05-19T05:42:46.285Z,11.80
2023-05-19T05:45:14.180Z,12.93
2023-05-19T05:47:42.604Z,13.35
2023-05-19T05:50:10.953Z,13.20
2023-05-19T05:52:38.957Z,12.90
2023-05-19T05:55:07.042Z,11.55
2023-05-19T05:57:36.480Z,13.02
2023-05-19T06:00:07.771Z,13.60
2023-05-19T06:02:50.487Z,12.05
2023-05-19T06:05:19.702Z,13.80
2023-05-19T06:07:48.822Z,10.88
2023-05-19T06:10:22.342Z,11.60
2023-05-19T06:12:51.242Z,8.18
2023-05-19T06:15:19.859Z,12.93
2023-05-19T06:18:13.595Z,11.60
2023-05-19T06:20:41.287Z,13.52
2023-05-19T06:23:08.976Z,9.50
2023-05-19T06:25:36.972Z,10.38
2023-05-19T06:28:04.673Z,9.68
2023-05-19T06:30:33.168Z,10.65
2023-05-19T06:33:15.370Z,9.93
2023-05-19T06:35:43.633Z,9.80
2023-05-19T06:38:11.348Z,8.52
2023-05-19T06:40:38.997Z,10.00
2023-05-19T06:43:06.735Z,10.18
2023-05-19T06:45:54.556Z,12.10
2023-05-19T06:48:23.586Z,9.70
2023-05-19T06:50:51.806Z,11.65
2023-05-19T06:53:23.712Z,8.73
2023-05-19T06:55:59.457Z,10.18
2023-05-19T06:58:30.966Z,8.25
2023-05-19T07:01:00.350Z,12.93
2023-05-19T07:03:32.789Z,9.05
2023-05-19T07:06:00.614Z,6.75
2023-05-19T07:08:29.104Z,6.80
2023-05-19T07:10:58.061Z,10.02
2023-05-19T07:13:27.493Z,9.15
2023-05-19T07:15:56.772Z,8.10
2023-05-19T07:18:25.487Z,7.90
2023-05-19T07:20:53.846Z,8.07
2023-05-19T07:23:21.863Z,9.07
2023-05-19T07:25:49.444Z,7.03
2023-05-19T07:28:17.091Z,7.90
2023-05-19T07:30:44.718Z,8.88
2023-05-19T07:33:12.442Z,6.00
2023-05-19T07:35:40.428Z,6.95
2023-05-19T07:38:08.071Z,11.80
2023-05-19T07:40:35.749Z,9.63
2023-05-19T07:43:03.397Z,7.78
2023-05-19T07:45:31.018Z,9.07
2023-05-19T07:47:58.682Z,9.35
2023-05-19T07:50:26.910Z,8.90
2023-05-19T07:52:54.568Z,9.05
2023-05-19T07:55:23.208Z,9.15
2023-05-19T07:57:51.372Z,9.80
2023-05-19T08:00:19.117Z,11.40
2023-05-19T08:02:47.209Z,8.23
2023-05-19T08:05:14.959Z,8.82
2023-05-19T08:07:42.573Z,12.15
2023-05-19T08:10:10.547Z,11.20
2023-05-19T08:12:38.163Z,9.55
2023-05-19T08:15:06.224Z,8.77
2023-05-19T08:17:33.877Z,11.05
2023-05-19T08:20:01.551Z,8.30
2023-05-19T08:22:29.135Z,7.57
2023-05-19T08:24:56.908Z,8.45
2023-05-19T08:27:26.507Z,10.70
2023-05-19T08:29:55.807Z,9.55
2023-05-19T08:32:24.568Z,12.70
2023-05-19T08:34:52.216Z,6.47
2023-05-19T08:37:19.783Z,8.40
2023-05-19T08:39:47.423Z,8.65
2023-05-19T08:42:15.356Z,10.88
2023-05-19T08:44:44.088Z,9.05
2023-05-19T08:47:14.724Z,9.38
2023-05-19T08:49:46.229Z,15.52
2023-05-19T08:52:36.316Z,9.13
2023-05-19T08:55:10.968Z,6.85
2023-05-19T08:57:39.124Z,8.82
2023-05-19T09:00:12.065Z,9.48
2023-05-19T09:02:50.438Z,11.63
2023-05-19T09:05:27.596Z,11.02
2023-05-19T09:07:55.341Z,8.07
2023-05-19T09:10:23.127Z,7.25
2023-05-19T09:12:51.445Z,8.10
2023-05-19T09:15:19.271Z,6.78
2023-05-19T09:17:50.469Z,8.60
2023-05-19T09:20:18.232Z,7.95
2023-05-19T09:22:47.312Z,9.02
2023-05-19T09:25:19.159Z,9.18
2023-05-19T09:27:48.451Z,12.63
2023-05-19T09:30:19.378Z,7.57
2023-05-19T09:32:47.966Z,7.45
2023-05-19T09:35:20.495Z,8.05
2023-05-19T09:37:48.260Z,9.00
2023-05-19T09:40:16.323Z,8.77
2023-05-19T09:42:44.277Z,6.03
2023-05-19T09:45:11.976Z,10.40
2023-05-19T09:47:42.706Z,8.13
2023-05-19T09:50:11.234Z,7.45
2023-05-19T09:52:39.537Z,7.03
2023-05-19T09:55:10.215Z,12.73
2023-05-19T09:57:38.513Z,9.05
2023-05-19T10:00:15.285Z,7.05
2023-05-19T10:02:44.034Z,9.52
2023-05-19T10:05:17.384Z,7.88
2023-05-19T10:07:45.793Z,8.70
2023-05-19T10:10:14.064Z,9.23
2023-05-19T10:12:42.289Z,7.75
2023-05-19T10:15:11.415Z,7.50
2023-05-19T10:17:42.619Z,7.50
2023-05-19T10:20:11.088Z,6.70
2023-05-19T10:22:39.224Z,6.88
2023-05-19T10:25:07.492Z,8.18
2023-05-19T10:27:41.354Z,9.88
2023-05-19T10:30:12.757Z,8.18
2023-05-19T10:32:43.319Z,9.82
2023-05-19T10:35:26.105Z,8.98
2023-05-19T10:38:12.752Z,7.57
2023-05-19T10:40:58.717Z,7.03
2023-05-19T10:43:36.891Z,7.55
2023-05-19T10:46:06.263Z,7.68
2023-05-19T10:48:36.421Z,8.30
2023-05-19T10:51:07.076Z,9.43
2023-05-19T10:53:35.071Z,10.18
2023-05-19T10:56:04.112Z,9.82
2023-05-19T10:58:40.962Z,6.45
2023-05-19T11:01:10.049Z,11.77
2023-05-19T11:03:46.152Z,8.13
2023-05-19T11:06:19.828Z,7.95
2023-05-19T11:08:50.433Z,9.40
2023-05-19T11:11:18.115Z,10.27
2023-05-19T11:13:49.212Z,9.82
2023-05-19T11:16:20.162Z,7.80
2023-05-19T11:18:50.859Z,7.73
2023-05-19T11:21:20.571Z,9.40
2023-05-19T11:23:48.205Z,7.10
2023-05-19T11:26:16.011Z,9.82
2023-05-19T11:28:43.874Z,10.93
2023-05-19T11:31:11.581Z,9.40
2023-05-19T11:33:40.035Z,11.13
2023-05-19T11:36:08.653Z,13.77
2023-05-19T11:38:36.383Z,11.18
2023-05-19T11:41:04.663Z,8.35
2023-05-19T11:43:32.330Z,10.10
2023-05-19T11:46:00.239Z,9.25
2023-05-19T11:48:28.054Z,9.52
2023-05-19T11:50:56.742Z,9.75
2023-05-19T11:53:24.543Z,12.45
2023-05-19T11:55:52.386Z,7.22
2023-05-19T11:58:26.867Z,7.53
2023-05-19T12:00:54.750Z,9.55
2023-05-19T12:03:22.826Z,12.25
2023-05-19T12:05:50.807Z,8.00
2023-05-19T12:08:18.839Z,11.93
2023-05-19T12:10:52.180Z,10.88
2023-05-19T12:13:20.882Z,11.60
2023-05-19T12:15:48.457Z,8.23
2023-05-19T12:18:16.093Z,8.15
2023-05-19T12:20:43.840Z,13.52
2023-05-19T12:23:11.562Z,9.38
2023-05-19T12:25:39.368Z,11.77
2023-05-19T12:28:07.730Z,9.77
2023-05-19T12:30:35.786Z,12.20
2023-05-19T12:33:03.941Z,11.52
2023-05-19T12:35:35.990Z,16.85
2023-05-19T12:38:09.785Z,12.48
2023-05-19T12:40:42.165Z,11.55
2023-05-19T12:43:21.371Z,12.63
2023-05-19T12:45:49.476Z,11.85
2023-05-19T12:48:17.247Z,10.70
2023-05-19T12:50:45.327Z,12.95
2023-05-19T12:53:13.190Z,11.80
2023-05-19T12:55:44.157Z,9.60
2023-05-19T12:58:12.592Z,13.07
2023-05-19T13:00:45.080Z,13.48
2023-05-19T13:03:16.835Z,10.18
2023-05-19T13:05:46.742Z,13.05
2023-05-19T13:08:15.469Z,9.20
2023-05-19T13:10:43.988Z,10.68
2023-05-19T13:13:11.683Z,7.80
2023-05-19T13:15:41.797Z,11.48
2023-05-19T13:18:10.504Z,12.00
2023-05-19T13:20:38.758Z,10.98
2023-05-19T13:23:06.605Z,9.20
2023-05-19T13:25:34.738Z,9.23
2023-05-19T13:28:05.466Z,9.00
2023-05-19T13:30:34.069Z,8.68
2023-05-19T13:33:02.209Z,9.18
2023-05-19T13:35:30.687Z,9.77
2023-05-19T13:37:58.363Z,9.52
2023-05-19T13:40:28.074Z,9.82
2023-05-19T13:42:55.734Z,9.20
2023-05-19T13:45:23.369Z,9.90
2023-05-19T13:47:51.269Z,11.93
2023-05-19T13:50:18.925Z,11.15
2023-05-19T13:52:46.490Z,10.80
2023-05-19T13:55:14.063Z,11.32
2023-05-19T13:57:44.019Z,8.55
2023-05-19T14:00:12.283Z,10.57
2023-05-19T14:02:40.490Z,8.68
2023-05-19T14:05:08.563Z,9.25
2023-05-19T14:07:36.422Z,8.23
2023-05-19T14:10:05.584Z,9.23
2023-05-19T14:12:45.016Z,10.65
2023-05-19T14:15:21.160Z,9.65
2023-05-19T14:17:49.035Z,9.52
2023-05-19T14:20:16.857Z,8.10
2023-05-19T14:22:44.516Z,10.10
2023-05-19T14:25:12.182Z,10.63
2023-05-19T14:27:40.050Z,10.15
2023-05-19T14:30:08.543Z,8.55
2023-05-19T14:32:36.229Z,8.88
2023-05-19T14:35:04.081Z,9.82
2023-05-19T14:37:32.195Z,8.38
2023-05-19T14:40:00.249Z,7.75
2023-05-19T14:42:27.851Z,8.77
2023-05-19T14:44:55.889Z,9.32
2023-05-19T14:47:24.355Z,8.15
2023-05-19T14:49:52.868Z,6.72
2023-05-19T14:52:20.450Z,8.05
2023-05-19T14:54:48.030Z,9.00
2023-05-19T14:57:15.666Z,8.60
2023-05-19T14:59:44.311Z,8.77
2023-05-19T15:02:12.611Z,7.80
2023-05-19T15:04:40.226Z,7.97
2023-05-19T15:07:10.770Z,8.50
2023-05-19T15:09:38.703Z,7.93
2023-05-19T15:12:06.411Z,7.95
2023-05-19T15:14:34.017Z,8.38
2023-05-19T15:17:01.672Z,8.85
2023-05-19T15:19:29.440Z,7.38
2023-05-19T15:21:58.119Z,7.45
2023-05-19T15:24:25.760Z,10.10
2023-05-19T15:26:54.248Z,9.45
2023-05-19T15:29:22.051Z,9.45
2023-05-19T15:31:52.631Z,8.15
2023-05-19T15:34:20.801Z,10.18
2023-05-19T15:36:48.442Z,9.32
2023-05-19T15:39:16.157Z,7.28
2023-05-19T15:41:43.763Z,8.25
2023-05-19T15:44:11.382Z,10.88
2023-05-19T15:46:40.097Z,10.68
2023-05-19T15:49:07.774Z,8.90
2023-05-19T15:51:35.960Z,8.20
2023-05-19T15:54:03.615Z,9.60
2023-05-19T15:56:31.237Z,10.05
2023-05-19T15:58:58.882Z,10.00
2023-05-19T16:01:26.624Z,8.70
2023-05-19T16:03:54.532Z,8.05
2023-05-19T16:06:22.366Z,8.80
2023-05-19T16:08:49.981Z,10.50
2023-05-19T16:11:18.200Z,8.43
2023-05-19T16:13:45.783Z,8.80
2023-05-19T16:16:13.449Z,9.43
2023-05-19T16:18:41.685Z,10.07
2023-05-19T16:21:09.275Z,7.35
2023-05-19T16:23:44.528Z,8.48
2023-05-19T16:26:12.277Z,10.32
2023-05-19T16:28:39.902Z,9.02
2023-05-19T16:31:07.491Z,13.05
2023-05-19T16:33:35.130Z,7.90
2023-05-19T16:36:03.788Z,10.95
2023-05-19T16:38:31.497Z,7.75
2023-05-19T16:40:59.080Z,8.38
2023-05-19T16:43:26.747Z,8.57
2023-05-19T16:45:54.377Z,8.75
2023-05-19T16:48:22.023Z,9.52
2023-05-19T16:50:49.743Z,7.80
2023-05-19T16:53:17.404Z,6.63
2023-05-19T16:55:44.992Z,7.95
2023-05-19T16:58:12.703Z,8.95
2023-05-19T17:00:40.300Z,7.82
2023-05-19T17:03:08.001Z,8.05
2023-05-19T17:05:37.017Z,6.93
2023-05-19T17:08:04.802Z,7.20
2023-05-19T17:10:32.539Z,7.88
2023-05-19T17:13:00.296Z,7.97
2023-05-19T17:15:28.003Z,8.85
2023-05-19T17:17:55.614Z,7.18
2023-05-19T17:20:23.256Z,8.88
2023-05-19T17:22:50.979Z,8.73
2023-05-19T17:25:18.599Z,8.02
2023-05-19T17:27:46.317Z,7.25
2023-05-19T17:30:14.409Z,7.85
2023-05-19T17:32:42.152Z,5.80
2023-05-19T17:35:09.917Z,7.57
2023-05-19T17:37:37.691Z,10.77
2023-05-19T17:40:05.531Z,9.25
2023-05-19T17:42:33.200Z,8.00
2023-05-19T17:45:00.971Z,8.32
2023-05-19T17:47:28.693Z,7.13
2023-05-19T17:49:56.397Z,7.60
2023-05-19T17:52:25.526Z,6.20
2023-05-19T17:54:53.652Z,6.18
2023-05-19T17:57:24.786Z,6.20
2023-05-19T17:59:52.504Z,9.30
2023-05-19T18:02:20.187Z,10.45
2023-05-19T18:04:48.048Z,8.20
2023-05-19T18:07:16.534Z,7.88
2023-05-19T18:09:46.293Z,9.20
2023-05-19T18:12:14.028Z,5.68
2023-05-19T18:14:41.640Z,6.88
2023-05-19T18:17:09.259Z,6.82
2023-05-19T18:19:36.905Z,7.45
2023-05-19T18:22:04.570Z,6.65
2023-05-19T18:24:32.129Z,7.38
2023-05-19T18:26:59.797Z,6.32
2023-05-19T18:29:27.426Z,7.40
2023-05-19T18:31:55.165Z,6.60
2023-05-19T18:34:22.787Z,7.13
2023-05-19T18:36:50.372Z,9.75
2023-05-19T18:39:17.997Z,6.75
2023-05-19T18:41:47.136Z,7.00
2023-05-19T18:44:14.710Z,7.50
2023-05-19T18:46:42.295Z,7.97
2023-05-19T18:49:11.855Z,6.53
2023-05-19T18:51:39.723Z,7.15
2023-05-19T18:54:08.426Z,7.03
2023-05-19T18:56:36.093Z,10.98
2023-05-19T18:59:03.688Z,7.38
2023-05-19T19:01:31.347Z,6.95
2023-05-19T19:03:59.031Z,7.90
2023-05-19T19:06:26.639Z,6.47
2023-05-19T19:08:54.279Z,8.57
2023-05-19T19:11:22.393Z,6.65
2023-05-19T19:13:51.299Z,7.05
2023-05-19T19:16:19.118Z,6.80
2023-05-19T19:18:46.846Z,7.80
2023-05-19T19:21:14.544Z,7.57
2023-05-19T19:23:43.211Z,9.77
2023-05-19T19:26:10.881Z,6.43
2023-05-19T19:28:38.552Z,6.72
2023-05-19T19:31:06.295Z,7.45
2023-05-19T19:33:33.911Z,8.38
2023-05-19T19:36:01.749Z,8.45
2023-05-19T19:38:29.322Z,8.90
2023-05-19T19:40:56.936Z,8.05
2023-05-19T19:43:24.613Z,6.50
2023-05-19T19:45:59.883Z,6.90
2023-05-19T19:48:27.886Z,7.70
2023-05-19T19:50:55.898Z,6.13
2023-05-19T19:53:23.777Z,8.10
2023-05-19T19:56:01.114Z,8.38
2023-05-19T19:58:29.604Z,6.75
2023-05-19T20:01:00.797Z,7.78
2023-05-19T20:03:28.630Z,7.70
2023-05-19T20:05:56.917Z,6.57
2023-05-19T20:08:25.158Z,8.55
2023-05-19T20:10:52.856Z,7.75
2023-05-19T20:13:20.592Z,6.97
2023-05-19T20:15:48.351Z,6.90
2023-05-19T20:18:16.235Z,5.43
2023-05-19T20:20:44.059Z,6.25
2023-05-19T20:23:13.217Z,9.10
2023-05-19T20:25:58.538Z,7.25
2023-05-19T20:28:30.450Z,7.10
2023-05-19T20:30:58.052Z,7.32
2023-05-19T20:33:25.655Z,6.95
2023-05-19T20:35:53.366Z,8.85
2023-05-19T20:38:20.933Z,7.20
2023-05-19T20:40:48.715Z,6.68
2023-05-19T20:43:16.500Z,6.93
2023-05-19T20:45:44.509Z,8.02
2023-05-19T20:48:12.357Z,7.57
2023-05-19T20:50:40.457Z,7.75
2023-05-19T20:53:08.120Z,6.65
2023-05-19T20:55:36.492Z,7.35
2023-05-19T20:58:04.117Z,8.90
2023-05-19T21:00:32.096Z,7.60
2023-05-19T21:03:00.138Z,7.90
2023-05-19T21:05:27.809Z,5.53
2023-05-19T21:07:55.525Z,6.60
2023-05-19T21:10:23.197Z,6.28
2023-05-19T21:12:50.983Z,5.80
2023-05-19T21:15:18.686Z,6.10
2023-05-19T21:17:46.673Z,5.32
2023-05-19T21:20:14.373Z,6.40
2023-05-19T21:22:41.946Z,4.43
2023-05-19T21:25:09.703Z,7.32
2023-05-19T21:27:39.375Z,5.72
2023-05-19T21:30:07.409Z,6.68
2023-05-19T21:32:35.318Z,5.30
2023-05-19T21:35:02.987Z,4.15
2023-05-19T21:37:30.719Z,3.92
2023-05-19T21:39:58.440Z,4.75
2023-05-19T21:42:26.141Z,4.40
2023-05-19T21:44:53.760Z,4.68
2023-05-19T21:47:21.392Z,6.07
2023-05-19T21:49:49.042Z,3.80
2023-05-19T21:52:16.723Z,4.80
2023-05-19T21:54:44.307Z,3.38
2023-05-19T21:57:12.626Z,5.55
2023-05-19T21:59:40.316Z,3.75
2023-05-19T22:02:08.193Z,3.72
2023-05-19T22:04:36.054Z,6.00
2023-05-19T22:07:03.676Z,4.72
2023-05-19T22:09:31.361Z,5.95
2023-05-19T22:11:58.964Z,7.13
2023-05-19T22:14:26.577Z,3.80
2023-05-19T22:16:55.303Z,4.07
2023-05-19T22:19:23.030Z,3.38
2023-05-19T22:21:55.905Z,6.53
2023-05-19T22:24:30.052Z,5.18
2023-05-19T22:26:57.738Z,6.35
2023-05-19T22:29:25.359Z,5.60
2023-05-19T22:31:52.949Z,4.40
2023-05-19T22:34:20.758Z,3.58
2023-05-19T22:36:48.393Z,4.55
2023-05-19T22:39:16.446Z,5.03
2023-05-19T22:41:45.320Z,3.65
2023-05-19T22:44:16.075Z,4.18
2023-05-19T22:46:46.573Z,4.07
2023-05-19T22:49:14.210Z,5.68
2023-05-19T22:51:41.816Z,4.80
2023-05-19T22:54:10.461Z,4.85
2023-05-19T22:56:39.034Z,4.40
2023-05-19T22:59:06.706Z,4.95
2023-05-19T23:01:34.380Z,6.10
2023-05-19T23:04:02.071Z,5.20
2023-05-19T23:06:29.813Z,3.85
2023-05-19T23:09:03.721Z,4.60
2023-05-19T23:11:31.515Z,5.13
2023-05-19T23:13:59.123Z,6.55
2023-05-19T23:16:26.767Z,4.93
2023-05-19T23:18:54.483Z,4.55
2023-05-19T23:21:22.051Z,4.55
2023-05-19T23:23:50.337Z,5.60
2023-05-19T23:26:17.889Z,6.47
2023-05-19T23:28:45.873Z,4.47
2023-05-19T23:31:13.580Z,3.90
2023-05-19T23:33:41.188Z,4.95
2023-05-19T23:36:09.805Z,4.80
2023-05-19T23:38:37.730Z,5.50
2023-05-19T23:41:05.799Z,6.97
2023-05-19T23:43:33.501Z,6.80
2023-05-19T23:46:01.547Z,4.60
2023-05-19T23:48:29.500Z,5.95
2023-05-19T23:50:57.804Z,8.60
2023-05-19T23:53:25.704Z,5.45
2023-05-19T23:55:53.556Z,6.53
2023-05-19T23:58:23.201Z,4.20
